sensor_id;sensor_type;location;lat;lon;timestamp;P1;durP1;ratioP1;P2;durP2;ratioP2
14611;SDS011;7392;52.078;11.650;2022-11-20T00:01:03;13.23;;;9.77;;
14611;SDS011;7392;52.078;11.650;2022-11-20T00:03:32;14.93;;;9.93;;
14611;SDS011;7392;52.078;11.650;2022-11-20T00:06:00;12.30;;;9.03;;
14611;SDS011;7392;52.078;11.650;2022-11-20T00:08:28;9.93;;;7.70;;
14611;SDS011;7392;52.078;11.650;2022-11-20T00:10:56;9.53;;;7.67;;
14611;SDS011;7392;52.078;11.650;2022-11-20T00:13:25;8.63;;;6.93;;
14611;SDS011;7392;52.078;11.650;2022-11-20T00:15:56;8.67;;;6.67;;
14611;SDS011;7392;52.078;11.650;2022-11-20T00:18:24;8.10;;;6.70;;
14611;SDS011;7392;52.078;11.650;2022-11-20T00:20:52;7.83;;;6.00;;
14611;SDS011;7392;52.078;11.650;2022-11-20T00:23:20;7.67;;;6.13;;
14611;SDS011;7392;52.078;11.650;2022-11-20T00:25:48;8.10;;;6.40;;
14611;SDS011;7392;52.078;11.650;2022-11-20T00:28:16;8.20;;;6.57;;
14611;SDS011;7392;52.078;11.650;2022-11-20T00:30:45;9.23;;;6.77;;
14611;SDS011;7392;52.078;11.650;2022-11-20T00:33:13;6.87;;;5.93;;
14611;SDS011;7392;52.078;11.650;2022-11-20T00:35:40;9.03;;;7.10;;
14611;SDS011;7392;52.078;11.650;2022-11-20T00:38:08;8.30;;;6.93;;
14611;SDS011;7392;52.078;11.650;2022-11-20T00:40:36;9.93;;;7.17;;
14611;SDS011;7392;52.078;11.650;2022-11-20T00:43:04;11.30;;;8.50;;
14611;SDS011;7392;52.078;11.650;2022-11-20T00:45:31;11.03;;;7.93;;
14611;SDS011;7392;52.078;11.650;2022-11-20T00:48:01;11.47;;;7.93;;
14611;SDS011;7392;52.078;11.650;2022-11-20T00:50:28;11.70;;;9.03;;
14611;SDS011;7392;52.078;11.650;2022-11-20T00:52:56;10.17;;;7.47;;
14611;SDS011;7392;52.078;11.650;2022-11-20T00:55:24;9.97;;;7.93;;
14611;SDS011;7392;52.078;11.650;2022-11-20T00:57:52;11.97;;;8.87;;
14611;SDS011;7392;52.078;11.650;2022-11-20T01:00:19;10.83;;;8.00;;
14611;SDS011;7392;52.078;11.650;2022-11-20T01:02:47;10.00;;;6.87;;
14611;SDS011;7392;52.078;11.650;2022-11-20T01:05:16;9.73;;;7.30;;
14611;SDS011;7392;52.078;11.650;2022-11-20T01:07:44;8.97;;;6.80;;
14611;SDS011;7392;52.078;11.650;2022-11-20T01:10:12;9.93;;;7.70;;
14611;SDS011;7392;52.078;11.650;2022-11-20T01:12:40;9.73;;;7.00;;
14611;SDS011;7392;52.078;11.650;2022-11-20T01:15:08;9.33;;;7.47;;
14611;SDS011;7392;52.078;11.650;2022-11-20T01:17:36;10.83;;;7.30;;
14611;SDS011;7392;52.078;11.650;2022-11-20T01:20:04;10.27;;;7.20;;
14611;SDS011;7392;52.078;11.650;2022-11-20T01:22:34;13.13;;;7.50;;
14611;SDS011;7392;52.078;11.650;2022-11-20T01:25:02;8.63;;;6.20;;
14611;SDS011;7392;52.078;11.650;2022-11-20T01:27:30;10.63;;;7.17;;
14611;SDS011;7392;52.078;11.650;2022-11-20T01:29:58;9.00;;;6.60;;
14611;SDS011;7392;52.078;11.650;2022-11-20T01:32:26;9.13;;;6.80;;
14611;SDS011;7392;52.078;11.650;2022-11-20T01:34:54;10.27;;;7.47;;
14611;SDS011;7392;52.078;11.650;2022-11-20T01:37:22;10.33;;;7.43;;
14611;SDS011;7392;52.078;11.650;2022-11-20T01:39:51;12.30;;;7.60;;
14611;SDS011;7392;52.078;11.650;2022-11-20T01:42:19;10.37;;;7.37;;
14611;SDS011;7392;52.078;11.650;2022-11-20T01:48:14;7.03;;;5.73;;
14611;SDS011;7392;52.078;11.650;2022-11-20T01:50:42;8.97;;;6.67;;
14611;SDS011;7392;52.078;11.650;2022-11-20T01:53:11;7.97;;;5.90;;
14611;SDS011;7392;52.078;11.650;2022-11-20T01:55:44;8.57;;;5.97;;
14611;SDS011;7392;52.078;11.650;2022-11-20T01:58:14;8.63;;;6.33;;
14611;SDS011;7392;52.078;11.650;2022-11-20T02:00:43;9.73;;;7.23;;
14611;SDS011;7392;52.078;11.650;2022-11-20T02:03:12;7.37;;;5.93;;
14611;SDS011;7392;52.078;11.650;2022-11-20T02:05:43;8.33;;;5.80;;
14611;SDS011;7392;52.078;11.650;2022-11-20T02:08:16;9.33;;;6.17;;
14611;SDS011;7392;52.078;11.650;2022-11-20T02:10:46;7.80;;;5.80;;
14611;SDS011;7392;52.078;11.650;2022-11-20T02:13:14;8.73;;;5.80;;
14611;SDS011;7392;52.078;11.650;2022-11-20T02:16:13;8.50;;;6.13;;
14611;SDS011;7392;52.078;11.650;2022-11-20T02:18:43;7.83;;;5.60;;
14611;SDS011;7392;52.078;11.650;2022-11-20T02:21:14;9.03;;;6.10;;
14611;SDS011;7392;52.078;11.650;2022-11-20T02:24:03;9.20;;;7.13;;
14611;SDS011;7392;52.078;11.650;2022-11-20T02:26:34;10.40;;;6.40;;
14611;SDS011;7392;52.078;11.650;2022-11-20T02:29:08;8.70;;;6.63;;
14611;SDS011;7392;52.078;11.650;2022-11-20T02:31:36;9.33;;;7.17;;
14611;SDS011;7392;52.078;11.650;2022-11-20T02:34:05;7.77;;;5.90;;
14611;SDS011;7392;52.078;11.650;2022-11-20T02:36:33;7.47;;;6.17;;
14611;SDS011;7392;52.078;11.650;2022-11-20T02:39:04;7.90;;;6.23;;
14611;SDS011;7392;52.078;11.650;2022-11-20T02:41:33;7.03;;;5.97;;
14611;SDS011;7392;52.078;11.650;2022-11-20T02:44:03;6.93;;;5.43;;
14611;SDS011;7392;52.078;11.650;2022-11-20T02:46:31;9.80;;;7.33;;
14611;SDS011;7392;52.078;11.650;2022-11-20T02:49:00;10.20;;;7.10;;
14611;SDS011;7392;52.078;11.650;2022-11-20T02:51:28;8.73;;;7.37;;
14611;SDS011;7392;52.078;11.650;2022-11-20T02:53:56;7.90;;;6.57;;
14611;SDS011;7392;52.078;11.650;2022-11-20T02:56:25;9.83;;;6.83;;
14611;SDS011;7392;52.078;11.650;2022-11-20T02:58:54;10.50;;;7.00;;
14611;SDS011;7392;52.078;11.650;2022-11-20T03:01:22;8.17;;;6.10;;
14611;SDS011;7392;52.078;11.650;2022-11-20T03:03:50;7.17;;;6.03;;
14611;SDS011;7392;52.078;11.650;2022-11-20T03:06:20;7.80;;;6.50;;
14611;SDS011;7392;52.078;11.650;2022-11-20T03:08:48;8.60;;;5.67;;
14611;SDS011;7392;52.078;11.650;2022-11-20T03:11:16;6.23;;;5.63;;
14611;SDS011;7392;52.078;11.650;2022-11-20T03:13:46;8.83;;;6.13;;
14611;SDS011;7392;52.078;11.650;2022-11-20T03:16:15;8.43;;;5.90;;
14611;SDS011;7392;52.078;11.650;2022-11-20T03:18:45;8.27;;;6.43;;
14611;SDS011;7392;52.078;11.650;2022-11-20T03:21:13;8.40;;;6.47;;
14611;SDS011;7392;52.078;11.650;2022-11-20T03:23:42;8.83;;;6.80;;
14611;SDS011;7392;52.078;11.650;2022-11-20T03:26:10;9.13;;;6.83;;
14611;SDS011;7392;52.078;11.650;2022-11-20T03:28:40;8.60;;;7.47;;
14611;SDS011;7392;52.078;11.650;2022-11-20T03:31:10;8.60;;;6.80;;
14611;SDS011;7392;52.078;11.650;2022-11-20T03:33:39;8.80;;;7.10;;
14611;SDS011;7392;52.078;11.650;2022-11-20T03:36:09;10.07;;;7.07;;
14611;SDS011;7392;52.078;11.650;2022-11-20T03:38:38;9.80;;;7.37;;
14611;SDS011;7392;52.078;11.650;2022-11-20T03:41:07;9.43;;;6.93;;
14611;SDS011;7392;52.078;11.650;2022-11-20T03:43:36;9.53;;;7.57;;
14611;SDS011;7392;52.078;11.650;2022-11-20T03:46:04;8.90;;;7.13;;
14611;SDS011;7392;52.078;11.650;2022-11-20T03:48:34;8.57;;;6.53;;
14611;SDS011;7392;52.078;11.650;2022-11-20T03:51:09;8.97;;;6.50;;
14611;SDS011;7392;52.078;11.650;2022-11-20T03:53:37;6.47;;;5.73;;
14611;SDS011;7392;52.078;11.650;2022-11-20T03:56:06;6.80;;;5.60;;
14611;SDS011;7392;52.078;11.650;2022-11-20T03:58:35;6.20;;;5.03;;
14611;SDS011;7392;52.078;11.650;2022-11-20T04:01:04;7.70;;;5.47;;
14611;SDS011;7392;52.078;11.650;2022-11-20T04:03:35;9.40;;;5.77;;
14611;SDS011;7392;52.078;11.650;2022-11-20T04:06:04;7.27;;;5.07;;
14611;SDS011;7392;52.078;11.650;2022-11-20T04:08:32;6.97;;;5.23;;
14611;SDS011;7392;52.078;11.650;2022-11-20T04:11:10;7.30;;;5.40;;
14611;SDS011;7392;52.078;11.650;2022-11-20T04:13:38;6.60;;;4.97;;
14611;SDS011;7392;52.078;11.650;2022-11-20T04:16:07;5.73;;;4.57;;
14611;SDS011;7392;52.078;11.650;2022-11-20T04:18:37;5.40;;;4.73;;
14611;SDS011;7392;52.078;11.650;2022-11-20T04:21:05;7.93;;;5.27;;
14611;SDS011;7392;52.078;11.650;2022-11-20T04:23:33;7.87;;;5.77;;
14611;SDS011;7392;52.078;11.650;2022-11-20T04:26:02;6.60;;;5.03;;
14611;SDS011;7392;52.078;11.650;2022-11-20T04:28:30;7.00;;;5.27;;
14611;SDS011;7392;52.078;11.650;2022-11-20T04:31:01;6.80;;;4.67;;
14611;SDS011;7392;52.078;11.650;2022-11-20T04:33:30;5.90;;;4.63;;
14611;SDS011;7392;52.078;11.650;2022-11-20T04:36:02;6.13;;;5.07;;
14611;SDS011;7392;52.078;11.650;2022-11-20T04:38:30;6.80;;;4.67;;
14611;SDS011;7392;52.078;11.650;2022-11-20T04:40:59;5.13;;;3.90;;
14611;SDS011;7392;52.078;11.650;2022-11-20T04:43:28;5.20;;;4.23;;
14611;SDS011;7392;52.078;11.650;2022-11-20T04:45:56;7.47;;;5.67;;
14611;SDS011;7392;52.078;11.650;2022-11-20T04:48:28;6.53;;;5.00;;
14611;SDS011;7392;52.078;11.650;2022-11-20T04:50:57;7.13;;;5.10;;
14611;SDS011;7392;52.078;11.650;2022-11-20T04:53:26;6.37;;;4.63;;
14611;SDS011;7392;52.078;11.650;2022-11-20T04:55:58;5.30;;;4.37;;
14611;SDS011;7392;52.078;11.650;2022-11-20T04:58:27;6.50;;;4.90;;
14611;SDS011;7392;52.078;11.650;2022-11-20T05:01:00;6.70;;;4.70;;
14611;SDS011;7392;52.078;11.650;2022-11-20T05:03:29;4.93;;;4.00;;
14611;SDS011;7392;52.078;11.650;2022-11-20T05:05:59;4.67;;;3.40;;
14611;SDS011;7392;52.078;11.650;2022-11-20T05:08:29;4.63;;;3.77;;
14611;SDS011;7392;52.078;11.650;2022-11-20T05:11:00;4.67;;;3.63;;
14611;SDS011;7392;52.078;11.650;2022-11-20T05:13:29;5.23;;;3.90;;
14611;SDS011;7392;52.078;11.650;2022-11-20T05:16:00;5.10;;;4.20;;
14611;SDS011;7392;52.078;11.650;2022-11-20T05:18:29;5.43;;;4.30;;
14611;SDS011;7392;52.078;11.650;2022-11-20T05:20:56;5.83;;;4.50;;
14611;SDS011;7392;52.078;11.650;2022-11-20T05:23:25;7.63;;;5.00;;
14611;SDS011;7392;52.078;11.650;2022-11-20T05:25:56;6.43;;;5.30;;
14611;SDS011;7392;52.078;11.650;2022-11-20T05:28:25;5.77;;;4.87;;
14611;SDS011;7392;52.078;11.650;2022-11-20T05:30:54;8.10;;;5.47;;
14611;SDS011;7392;52.078;11.650;2022-11-20T05:33:22;8.73;;;6.20;;
14611;SDS011;7392;52.078;11.650;2022-11-20T05:35:50;8.33;;;6.50;;
14611;SDS011;7392;52.078;11.650;2022-11-20T05:38:17;8.47;;;5.83;;
14611;SDS011;7392;52.078;11.650;2022-11-20T05:40:45;6.90;;;5.37;;
14611;SDS011;7392;52.078;11.650;2022-11-20T05:43:15;6.50;;;5.23;;
14611;SDS011;7392;52.078;11.650;2022-11-20T05:45:50;6.43;;;4.57;;
14611;SDS011;7392;52.078;11.650;2022-11-20T05:48:19;6.17;;;4.80;;
14611;SDS011;7392;52.078;11.650;2022-11-20T05:50:47;6.30;;;4.87;;
14611;SDS011;7392;52.078;11.650;2022-11-20T05:53:15;7.13;;;4.77;;
14611;SDS011;7392;52.078;11.650;2022-11-20T05:55:42;5.87;;;4.40;;
14611;SDS011;7392;52.078;11.650;2022-11-20T05:58:10;4.73;;;4.20;;
14611;SDS011;7392;52.078;11.650;2022-11-20T06:00:39;4.13;;;3.63;;
14611;SDS011;7392;52.078;11.650;2022-11-20T06:03:07;3.83;;;3.17;;
14611;SDS011;7392;52.078;11.650;2022-11-20T06:05:35;3.40;;;3.00;;
14611;SDS011;7392;52.078;11.650;2022-11-20T06:08:03;3.83;;;3.20;;
14611;SDS011;7392;52.078;11.650;2022-11-20T06:10:31;4.03;;;3.00;;
14611;SDS011;7392;52.078;11.650;2022-11-20T06:12:58;3.03;;;2.70;;
14611;SDS011;7392;52.078;11.650;2022-11-20T06:15:26;3.33;;;2.90;;
14611;SDS011;7392;52.078;11.650;2022-11-20T06:17:55;5.60;;;3.40;;
14611;SDS011;7392;52.078;11.650;2022-11-20T06:20:25;3.40;;;2.90;;
14611;SDS011;7392;52.078;11.650;2022-11-20T06:22:53;4.80;;;3.50;;
14611;SDS011;7392;52.078;11.650;2022-11-20T06:25:21;3.70;;;3.03;;
14611;SDS011;7392;52.078;11.650;2022-11-20T06:27:49;3.73;;;2.87;;
14611;SDS011;7392;52.078;11.650;2022-11-20T06:30:16;3.60;;;3.20;;
14611;SDS011;7392;52.078;11.650;2022-11-20T06:32:44;3.37;;;2.80;;
14611;SDS011;7392;52.078;11.650;2022-11-20T06:35:13;4.13;;;3.20;;
14611;SDS011;7392;52.078;11.650;2022-11-20T06:37:41;3.40;;;2.87;;
14611;SDS011;7392;52.078;11.650;2022-11-20T06:40:10;3.30;;;2.90;;
14611;SDS011;7392;52.078;11.650;2022-11-20T06:42:38;3.40;;;2.33;;
14611;SDS011;7392;52.078;11.650;2022-11-20T06:45:07;3.90;;;3.47;;
14611;SDS011;7392;52.078;11.650;2022-11-20T06:47:35;6.63;;;4.00;;
14611;SDS011;7392;52.078;11.650;2022-11-20T06:50:03;4.33;;;3.67;;
14611;SDS011;7392;52.078;11.650;2022-11-20T06:52:33;4.70;;;3.90;;
14611;SDS011;7392;52.078;11.650;2022-11-20T06:55:08;6.40;;;4.67;;
14611;SDS011;7392;52.078;11.650;2022-11-20T06:57:36;6.33;;;4.57;;
14611;SDS011;7392;52.078;11.650;2022-11-20T07:00:04;5.60;;;4.20;;
14611;SDS011;7392;52.078;11.650;2022-11-20T07:02:33;5.53;;;4.37;;
14611;SDS011;7392;52.078;11.650;2022-11-20T07:05:00;4.83;;;3.70;;
14611;SDS011;7392;52.078;11.650;2022-11-20T07:07:28;4.60;;;3.77;;
14611;SDS011;7392;52.078;11.650;2022-11-20T07:09:58;5.87;;;3.90;;
14611;SDS011;7392;52.078;11.650;2022-11-20T07:12:26;4.47;;;3.37;;
14611;SDS011;7392;52.078;11.650;2022-11-20T07:14:53;4.37;;;3.30;;
14611;SDS011;7392;52.078;11.650;2022-11-20T07:17:21;3.67;;;3.17;;
14611;SDS011;7392;52.078;11.650;2022-11-20T07:19:49;3.27;;;2.80;;
14611;SDS011;7392;52.078;11.650;2022-11-20T07:22:17;3.73;;;3.03;;
14611;SDS011;7392;52.078;11.650;2022-11-20T07:24:47;3.83;;;3.10;;
14611;SDS011;7392;52.078;11.650;2022-11-20T07:27:16;3.37;;;2.70;;
14611;SDS011;7392;52.078;11.650;2022-11-20T07:29:44;3.40;;;2.97;;
14611;SDS011;7392;52.078;11.650;2022-11-20T07:32:12;5.00;;;3.70;;
14611;SDS011;7392;52.078;11.650;2022-11-20T07:34:40;5.93;;;4.17;;
14611;SDS011;7392;52.078;11.650;2022-11-20T07:37:07;4.67;;;3.87;;
14611;SDS011;7392;52.078;11.650;2022-11-20T07:39:36;4.50;;;3.63;;
14611;SDS011;7392;52.078;11.650;2022-11-20T07:42:03;6.07;;;4.47;;
14611;SDS011;7392;52.078;11.650;2022-11-20T07:44:33;7.33;;;4.77;;
14611;SDS011;7392;52.078;11.650;2022-11-20T07:47:00;5.97;;;4.80;;
14611;SDS011;7392;52.078;11.650;2022-11-20T07:49:29;6.23;;;4.43;;
14611;SDS011;7392;52.078;11.650;2022-11-20T07:51:56;7.03;;;4.93;;
14611;SDS011;7392;52.078;11.650;2022-11-20T07:54:30;5.43;;;4.10;;
14611;SDS011;7392;52.078;11.650;2022-11-20T07:56:57;5.87;;;4.33;;
14611;SDS011;7392;52.078;11.650;2022-11-20T07:59:25;5.10;;;4.13;;
14611;SDS011;7392;52.078;11.650;2022-11-20T08:01:54;5.37;;;4.13;;
14611;SDS011;7392;52.078;11.650;2022-11-20T08:04:22;4.90;;;4.20;;
14611;SDS011;7392;52.078;11.650;2022-11-20T08:06:51;4.77;;;3.57;;
14611;SDS011;7392;52.078;11.650;2022-11-20T08:09:19;5.07;;;4.20;;
14611;SDS011;7392;52.078;11.650;2022-11-20T08:11:47;4.73;;;4.23;;
14611;SDS011;7392;52.078;11.650;2022-11-20T08:14:33;8.53;;;5.30;;
14611;SDS011;7392;52.078;11.650;2022-11-20T08:17:02;7.00;;;5.23;;
14611;SDS011;7392;52.078;11.650;2022-11-20T08:19:30;7.17;;;5.43;;
14611;SDS011;7392;52.078;11.650;2022-11-20T08:21:57;8.40;;;5.90;;
14611;SDS011;7392;52.078;11.650;2022-11-20T08:24:25;6.83;;;5.67;;
14611;SDS011;7392;52.078;11.650;2022-11-20T08:26:53;8.30;;;6.10;;
14611;SDS011;7392;52.078;11.650;2022-11-20T08:29:21;10.53;;;6.53;;
14611;SDS011;7392;52.078;11.650;2022-11-20T08:31:49;7.63;;;6.77;;
14611;SDS011;7392;52.078;11.650;2022-11-20T08:34:18;8.37;;;6.07;;
14611;SDS011;7392;52.078;11.650;2022-11-20T08:36:46;7.43;;;5.80;;
14611;SDS011;7392;52.078;11.650;2022-11-20T08:39:14;7.43;;;5.93;;
14611;SDS011;7392;52.078;11.650;2022-11-20T08:41:42;9.70;;;6.17;;
14611;SDS011;7392;52.078;11.650;2022-11-20T08:44:09;8.53;;;6.67;;
14611;SDS011;7392;52.078;11.650;2022-11-20T08:46:38;7.37;;;5.47;;
14611;SDS011;7392;52.078;11.650;2022-11-20T08:49:07;7.90;;;5.77;;
14611;SDS011;7392;52.078;11.650;2022-11-20T08:51:38;8.13;;;6.03;;
14611;SDS011;7392;52.078;11.650;2022-11-20T08:54:07;8.77;;;5.90;;
14611;SDS011;7392;52.078;11.650;2022-11-20T08:56:35;6.77;;;5.77;;
14611;SDS011;7392;52.078;11.650;2022-11-20T08:59:03;6.20;;;5.07;;
14611;SDS011;7392;52.078;11.650;2022-11-20T09:01:51;6.90;;;5.43;;
14611;SDS011;7392;52.078;11.650;2022-11-20T09:04:19;6.60;;;5.07;;
14611;SDS011;7392;52.078;11.650;2022-11-20T09:06:48;6.30;;;5.13;;
14611;SDS011;7392;52.078;11.650;2022-11-20T09:09:17;5.87;;;5.20;;
14611;SDS011;7392;52.078;11.650;2022-11-20T09:11:46;6.63;;;5.43;;
14611;SDS011;7392;52.078;11.650;2022-11-20T09:14:13;6.03;;;4.97;;
14611;SDS011;7392;52.078;11.650;2022-11-20T09:16:41;7.47;;;6.27;;
14611;SDS011;7392;52.078;11.650;2022-11-20T09:19:09;5.80;;;4.77;;
14611;SDS011;7392;52.078;11.650;2022-11-20T09:21:58;5.73;;;5.00;;
14611;SDS011;7392;52.078;11.650;2022-11-20T09:24:26;5.77;;;4.93;;
14611;SDS011;7392;52.078;11.650;2022-11-20T09:26:54;6.70;;;4.93;;
14611;SDS011;7392;52.078;11.650;2022-11-20T09:29:22;5.43;;;4.90;;
14611;SDS011;7392;52.078;11.650;2022-11-20T09:31:49;5.00;;;4.40;;
14611;SDS011;7392;52.078;11.650;2022-11-20T09:34:17;4.70;;;4.10;;
14611;SDS011;7392;52.078;11.650;2022-11-20T09:36:45;4.87;;;4.03;;
14611;SDS011;7392;52.078;11.650;2022-11-20T09:39:14;4.53;;;3.47;;
14611;SDS011;7392;52.078;11.650;2022-11-20T09:41:49;4.20;;;3.53;;
14611;SDS011;7392;52.078;11.650;2022-11-20T09:44:31;5.90;;;3.97;;
14611;SDS011;7392;52.078;11.650;2022-11-20T09:47:08;4.00;;;3.47;;
14611;SDS011;7392;52.078;11.650;2022-11-20T09:49:48;3.83;;;3.47;;
14611;SDS011;7392;52.078;11.650;2022-11-20T09:52:29;3.67;;;2.80;;
14611;SDS011;7392;52.078;11.650;2022-11-20T09:55:08;3.63;;;2.90;;
14611;SDS011;7392;52.078;11.650;2022-11-20T09:57:40;6.60;;;3.30;;
14611;SDS011;7392;52.078;11.650;2022-11-20T10:00:12;4.23;;;3.30;;
14611;SDS011;7392;52.078;11.650;2022-11-20T10:02:42;4.03;;;3.47;;
14611;SDS011;7392;52.078;11.650;2022-11-20T10:05:15;4.07;;;3.40;;
14611;SDS011;7392;52.078;11.650;2022-11-20T10:07:47;4.10;;;3.20;;
14611;SDS011;7392;52.078;11.650;2022-11-20T10:10:30;3.73;;;3.17;;
14611;SDS011;7392;52.078;11.650;2022-11-20T10:13:13;3.97;;;3.40;;
14611;SDS011;7392;52.078;11.650;2022-11-20T10:15:52;4.20;;;3.20;;
14611;SDS011;7392;52.078;11.650;2022-11-20T10:18:31;3.87;;;3.17;;
14611;SDS011;7392;52.078;11.650;2022-11-20T10:21:12;5.30;;;3.90;;
14611;SDS011;7392;52.078;11.650;2022-11-20T10:23:59;4.40;;;4.00;;
14611;SDS011;7392;52.078;11.650;2022-11-20T10:26:39;3.80;;;3.20;;
14611;SDS011;7392;52.078;11.650;2022-11-20T10:29:15;5.20;;;3.87;;
14611;SDS011;7392;52.078;11.650;2022-11-20T10:31:48;4.90;;;4.30;;
14611;SDS011;7392;52.078;11.650;2022-11-20T10:34:20;4.97;;;3.80;;
14611;SDS011;7392;52.078;11.650;2022-11-20T10:36:52;4.57;;;3.83;;
14611;SDS011;7392;52.078;11.650;2022-11-20T10:39:25;4.50;;;3.50;;
14611;SDS011;7392;52.078;11.650;2022-11-20T10:42:01;4.73;;;3.70;;
14611;SDS011;7392;52.078;11.650;2022-11-20T10:44:29;4.70;;;4.00;;
14611;SDS011;7392;52.078;11.650;2022-11-20T10:47:21;5.37;;;3.93;;
14611;SDS011;7392;52.078;11.650;2022-11-20T10:49:50;5.53;;;4.00;;
14611;SDS011;7392;52.078;11.650;2022-11-20T10:52:23;5.57;;;4.43;;
14611;SDS011;7392;52.078;11.650;2022-11-20T10:54:58;6.63;;;4.13;;
14611;SDS011;7392;52.078;11.650;2022-11-20T10:57:39;4.67;;;3.77;;
14611;SDS011;7392;52.078;11.650;2022-11-20T11:00:19;4.23;;;3.33;;
14611;SDS011;7392;52.078;11.650;2022-11-20T11:02:47;4.40;;;3.30;;
14611;SDS011;7392;52.078;11.650;2022-11-20T11:05:18;3.83;;;3.10;;
14611;SDS011;7392;52.078;11.650;2022-11-20T11:07:57;5.60;;;3.77;;
14611;SDS011;7392;52.078;11.650;2022-11-20T11:10:27;3.20;;;2.90;;
14611;SDS011;7392;52.078;11.650;2022-11-20T11:13:07;4.43;;;3.10;;
14611;SDS011;7392;52.078;11.650;2022-11-20T11:15:46;4.23;;;3.27;;
14611;SDS011;7392;52.078;11.650;2022-11-20T11:18:22;3.97;;;3.27;;
14611;SDS011;7392;52.078;11.650;2022-11-20T11:20:52;4.63;;;3.27;;
14611;SDS011;7392;52.078;11.650;2022-11-20T11:23:28;3.33;;;3.03;;
14611;SDS011;7392;52.078;11.650;2022-11-20T11:25:59;4.93;;;3.50;;
14611;SDS011;7392;52.078;11.650;2022-11-20T11:28:29;4.33;;;3.20;;
14611;SDS011;7392;52.078;11.650;2022-11-20T11:30:58;3.37;;;3.07;;
14611;SDS011;7392;52.078;11.650;2022-11-20T11:33:26;3.50;;;3.17;;
14611;SDS011;7392;52.078;11.650;2022-11-20T11:35:56;4.20;;;3.27;;
14611;SDS011;7392;52.078;11.650;2022-11-20T11:38:28;3.73;;;3.13;;
14611;SDS011;7392;52.078;11.650;2022-11-20T11:40:57;3.40;;;3.10;;
14611;SDS011;7392;52.078;11.650;2022-11-20T11:43:27;3.17;;;2.60;;
14611;SDS011;7392;52.078;11.650;2022-11-20T11:46:25;4.07;;;2.70;;
14611;SDS011;7392;52.078;11.650;2022-11-20T11:48:59;2.70;;;2.40;;
14611;SDS011;7392;52.078;11.650;2022-11-20T11:51:30;3.27;;;2.50;;
14611;SDS011;7392;52.078;11.650;2022-11-20T11:54:03;2.33;;;2.07;;
14611;SDS011;7392;52.078;11.650;2022-11-20T11:56:37;2.20;;;1.97;;
14611;SDS011;7392;52.078;11.650;2022-11-20T11:59:08;3.57;;;2.53;;
14611;SDS011;7392;52.078;11.650;2022-11-20T12:01:42;2.87;;;2.17;;
14611;SDS011;7392;52.078;11.650;2022-11-20T12:04:17;2.50;;;2.10;;
14611;SDS011;7392;52.078;11.650;2022-11-20T12:06:57;2.37;;;2.13;;
14611;SDS011;7392;52.078;11.650;2022-11-20T12:09:52;2.50;;;2.00;;
14611;SDS011;7392;52.078;11.650;2022-11-20T12:12:23;2.60;;;2.17;;
14611;SDS011;7392;52.078;11.650;2022-11-20T12:14:56;2.30;;;2.00;;
14611;SDS011;7392;52.078;11.650;2022-11-20T12:17:26;2.50;;;2.17;;
14611;SDS011;7392;52.078;11.650;2022-11-20T12:19:55;2.97;;;2.43;;
14611;SDS011;7392;52.078;11.650;2022-11-20T12:22:27;2.80;;;2.50;;
14611;SDS011;7392;52.078;11.650;2022-11-20T12:25:07;2.80;;;2.30;;
14611;SDS011;7392;52.078;11.650;2022-11-20T12:27:44;2.50;;;2.30;;
14611;SDS011;7392;52.078;11.650;2022-11-20T12:30:24;2.60;;;2.10;;
14611;SDS011;7392;52.078;11.650;2022-11-20T12:32:56;2.17;;;1.97;;
14611;SDS011;7392;52.078;11.650;2022-11-20T12:35:38;2.53;;;2.10;;
14611;SDS011;7392;52.078;11.650;2022-11-20T12:38:33;3.10;;;2.40;;
14611;SDS011;7392;52.078;11.650;2022-11-20T12:41:26;3.57;;;2.77;;
14611;SDS011;7392;52.078;11.650;2022-11-20T12:44:29;3.83;;;2.80;;
14611;SDS011;7392;52.078;11.650;2022-11-20T12:47:33;3.57;;;2.90;;
14611;SDS011;7392;52.078;11.650;2022-11-20T12:50:36;3.47;;;2.90;;
14611;SDS011;7392;52.078;11.650;2022-11-20T12:53:37;3.73;;;2.80;;
14611;SDS011;7392;52.078;11.650;2022-11-20T12:56:14;3.20;;;2.67;;
14611;SDS011;7392;52.078;11.650;2022-11-20T12:58:54;3.23;;;2.70;;
14611;SDS011;7392;52.078;11.650;2022-11-20T13:01:35;3.87;;;2.97;;
14611;SDS011;7392;52.078;11.650;2022-11-20T13:04:15;3.00;;;2.70;;
14611;SDS011;7392;52.078;11.650;2022-11-20T13:06:53;3.77;;;2.97;;
14611;SDS011;7392;52.078;11.650;2022-11-20T13:09:22;3.33;;;2.60;;
14611;SDS011;7392;52.078;11.650;2022-11-20T13:11:54;4.00;;;3.10;;
14611;SDS011;7392;52.078;11.650;2022-11-20T13:14:33;3.13;;;2.80;;
14611;SDS011;7392;52.078;11.650;2022-11-20T13:17:05;5.27;;;3.03;;
14611;SDS011;7392;52.078;11.650;2022-11-20T13:19:40;7.27;;;4.57;;
14611;SDS011;7392;52.078;11.650;2022-11-20T13:22:09;4.97;;;3.90;;
14611;SDS011;7392;52.078;11.650;2022-11-20T13:24:37;5.33;;;3.83;;
14611;SDS011;7392;52.078;11.650;2022-11-20T13:27:05;4.20;;;3.43;;
14611;SDS011;7392;52.078;11.650;2022-11-20T13:29:47;3.87;;;3.00;;
14611;SDS011;7392;52.078;11.650;2022-11-20T13:32:27;3.90;;;3.03;;
14611;SDS011;7392;52.078;11.650;2022-11-20T13:35:00;2.97;;;2.67;;
14611;SDS011;7392;52.078;11.650;2022-11-20T13:37:31;3.70;;;3.00;;
14611;SDS011;7392;52.078;11.650;2022-11-20T13:40:13;3.40;;;2.67;;
14611;SDS011;7392;52.078;11.650;2022-11-20T13:42:55;3.37;;;3.03;;
14611;SDS011;7392;52.078;11.650;2022-11-20T13:45:28;2.80;;;2.53;;
14611;SDS011;7392;52.078;11.650;2022-11-20T13:47:59;3.33;;;2.60;;
14611;SDS011;7392;52.078;11.650;2022-11-20T13:50:43;3.40;;;3.07;;
14611;SDS011;7392;52.078;11.650;2022-11-20T13:53:23;5.77;;;3.10;;
14611;SDS011;7392;52.078;11.650;2022-11-20T13:56:01;3.10;;;2.80;;
14611;SDS011;7392;52.078;11.650;2022-11-20T13:58:40;3.00;;;2.70;;
14611;SDS011;7392;52.078;11.650;2022-11-20T14:01:19;3.60;;;2.87;;
14611;SDS011;7392;52.078;11.650;2022-11-20T14:03:49;3.00;;;2.70;;
14611;SDS011;7392;52.078;11.650;2022-11-20T14:06:38;3.13;;;2.73;;
14611;SDS011;7392;52.078;11.650;2022-11-20T14:09:10;3.43;;;2.97;;
14611;SDS011;7392;52.078;11.650;2022-11-20T14:11:45;3.40;;;2.57;;
14611;SDS011;7392;52.078;11.650;2022-11-20T14:14:15;4.33;;;2.67;;
14611;SDS011;7392;52.078;11.650;2022-11-20T14:16:45;4.30;;;3.00;;
14611;SDS011;7392;52.078;11.650;2022-11-20T14:19:21;5.70;;;3.40;;
14611;SDS011;7392;52.078;11.650;2022-11-20T14:22:06;7.00;;;3.90;;
14611;SDS011;7392;52.078;11.650;2022-11-20T14:24:36;3.40;;;2.97;;
14611;SDS011;7392;52.078;11.650;2022-11-20T14:27:04;4.00;;;3.27;;
14611;SDS011;7392;52.078;11.650;2022-11-20T14:29:38;3.37;;;2.73;;
14611;SDS011;7392;52.078;11.650;2022-11-20T14:32:08;3.40;;;2.60;;
14611;SDS011;7392;52.078;11.650;2022-11-20T14:34:37;3.67;;;2.77;;
14611;SDS011;7392;52.078;11.650;2022-11-20T14:37:11;3.40;;;2.40;;
14611;SDS011;7392;52.078;11.650;2022-11-20T14:39:48;2.77;;;2.13;;
14611;SDS011;7392;52.078;11.650;2022-11-20T14:42:17;3.40;;;2.90;;
14611;SDS011;7392;52.078;11.650;2022-11-20T14:44:46;3.63;;;3.00;;
14611;SDS011;7392;52.078;11.650;2022-11-20T14:47:17;3.40;;;3.00;;
14611;SDS011;7392;52.078;11.650;2022-11-20T14:49:46;2.63;;;2.43;;
14611;SDS011;7392;52.078;11.650;2022-11-20T14:52:18;3.93;;;3.00;;
14611;SDS011;7392;52.078;11.650;2022-11-20T14:54:48;2.80;;;2.40;;
14611;SDS011;7392;52.078;11.650;2022-11-20T14:57:21;3.10;;;2.80;;
14611;SDS011;7392;52.078;11.650;2022-11-20T15:00:04;3.93;;;2.90;;
14611;SDS011;7392;52.078;11.650;2022-11-20T15:02:48;3.17;;;2.70;;
14611;SDS011;7392;52.078;11.650;2022-11-20T15:05:18;4.80;;;3.10;;
14611;SDS011;7392;52.078;11.650;2022-11-20T15:07:49;2.77;;;2.27;;
14611;SDS011;7392;52.078;11.650;2022-11-20T15:10:22;3.63;;;2.80;;
14611;SDS011;7392;52.078;11.650;2022-11-20T15:12:51;3.00;;;2.20;;
14611;SDS011;7392;52.078;11.650;2022-11-20T15:15:23;3.27;;;2.57;;
14611;SDS011;7392;52.078;11.650;2022-11-20T15:17:56;3.20;;;2.20;;